createdAt,value
2023-03-12T00:00:42.712Z,54.03
2023-03-12T00:03:11.017Z,53.98
2023-03-12T00:05:40.153Z,53.94
2023-03-12T00:08:09.092Z,53.91
2023-03-12T00:10:39.428Z,53.83
2023-03-12T00:13:09.959Z,53.68
2023-03-12T00:15:38.505Z,53.77
2023-03-12T00:18:06.959Z,53.75
2023-03-12T00:20:35.028Z,53.89
2023-03-12T00:23:03.037Z,53.89
2023-03-12T00:25:31.096Z,53.88
2023-03-12T00:27:59.112Z,53.87
2023-03-12T00:30:29.606Z,54.05
2023-03-12T00:32:57.837Z,54.21
2023-03-12T00:35:25.966Z,54.35
2023-03-12T00:37:53.996Z,54.63
2023-03-12T00:40:22.059Z,54.75
2023-03-12T00:42:50.070Z,54.81
2023-03-12T00:45:18.190Z,54.66
2023-03-12T00:47:47.589Z,54.55
2023-03-12T00:50:15.757Z,54.61
2023-03-12T00:52:44.184Z,54.46
2023-03-12T00:55:12.225Z,54.49
2023-03-12T00:57:40.298Z,54.50
2023-03-12T01:00:10.785Z,54.69
2023-03-12T01:02:39.405Z,54.62
2023-03-12T01:05:12.422Z,54.54
2023-03-12T01:07:40.535Z,54.68
2023-03-12T01:10:09.559Z,55.18
2023-03-12T01:12:37.642Z,55.01
2023-03-12T01:15:06.375Z,54.97
2023-03-12T01:17:34.517Z,54.93
2023-03-12T01:20:02.689Z,54.91
2023-03-12T01:22:32.185Z,54.82
2023-03-12T01:25:00.287Z,54.84
2023-03-12T01:27:28.401Z,55.10
2023-03-12T01:29:56.834Z,55.33
2023-03-12T01:32:25.214Z,55.16
2023-03-12T01:34:53.288Z,55.23
2023-03-12T01:37:21.388Z,55.24
2023-03-12T01:39:51.016Z,55.15
2023-03-12T01:42:19.186Z,54.99
2023-03-12T01:44:52.343Z,54.93
2023-03-12T01:47:20.726Z,55.11
2023-03-12T01:49:51.022Z,55.02
2023-03-12T01:52:23.091Z,54.81
2023-03-12T01:54:59.036Z,54.66
2023-03-12T01:57:32.950Z,54.68
2023-03-12T02:00:07.394Z,54.94
2023-03-12T02:02:42.579Z,55.16
2023-03-12T02:05:18.352Z,54.89
2023-03-12T02:07:46.748Z,54.91
2023-03-12T02:10:17.132Z,55.03
2023-03-12T02:12:45.440Z,55.04
2023-03-12T02:15:13.582Z,55.51
2023-03-12T02:17:42.025Z,55.45
2023-03-12T02:20:16.442Z,55.37
2023-03-12T02:22:50.422Z,55.34
2023-03-12T02:25:30.994Z,55.14
2023-03-12T02:28:01.109Z,55.35
2023-03-12T02:30:31.094Z,55.33
2023-03-12T02:33:02.710Z,55.15
2023-03-12T02:35:30.892Z,55.20
2023-03-12T02:37:59.054Z,55.24
2023-03-12T02:40:32.734Z,55.07
2023-03-12T02:43:01.971Z,55.23
2023-03-12T02:45:30.502Z,55.17
2023-03-12T02:47:58.571Z,55.20
2023-03-12T02:50:26.909Z,55.49
2023-03-12T02:52:55.020Z,55.53
2023-03-12T02:55:23.213Z,55.63
2023-03-12T02:57:52.776Z,55.73
2023-03-12T03:00:21.840Z,55.87
2023-03-12T03:02:52.926Z,55.87
2023-03-12T03:05:21.693Z,55.94
2023-03-12T03:07:50.012Z,56.03
2023-03-12T03:10:18.463Z,55.86
2023-03-12T03:12:46.767Z,55.72
2023-03-12T03:15:16.632Z,55.68
2023-03-12T03:17:44.790Z,55.99
2023-03-12T03:20:13.124Z,55.97
2023-03-12T03:22:41.176Z,56.26
2023-03-12T03:25:11.131Z,56.11
2023-03-12T03:27:39.224Z,55.97
2023-03-12T03:30:09.073Z,55.90
2023-03-12T03:32:43.228Z,55.81
2023-03-12T03:35:13.084Z,55.70
2023-03-12T03:37:41.185Z,55.65
2023-03-12T03:40:12.088Z,55.61
2023-03-12T03:42:41.315Z,55.57
2023-03-12T03:45:10.782Z,55.49
2023-03-12T03:47:40.381Z,55.53
2023-03-12T03:50:11.605Z,55.49
2023-03-12T03:52:39.680Z,55.47
2023-03-12T03:55:08.460Z,55.40
2023-03-12T03:57:36.488Z,55.39
2023-03-12T04:00:09.273Z,55.34
2023-03-12T04:02:41.655Z,55.44
2023-03-12T04:05:16.016Z,55.52
2023-03-12T04:07:44.170Z,55.44
2023-03-12T04:10:13.473Z,55.47
2023-03-12T04:12:41.867Z,55.65
2023-03-12T04:15:11.497Z,55.55
2023-03-12T04:17:39.586Z,55.55
2023-03-12T04:20:09.519Z,55.37
2023-03-12T04:22:39.193Z,55.36
2023-03-12T04:25:09.004Z,55.29
2023-03-12T04:27:37.140Z,55.23
2023-03-12T04:30:06.136Z,55.20
2023-03-12T04:32:36.147Z,55.30
2023-03-12T04:35:04.363Z,55.20
2023-03-12T04:37:34.587Z,55.14
2023-03-12T04:40:07.969Z,55.33
2023-03-12T04:42:36.613Z,55.26
2023-03-12T04:45:06.300Z,55.29
2023-03-12T04:47:35.319Z,55.26
2023-03-12T04:50:03.760Z,55.16
2023-03-12T04:52:32.689Z,55.23
2023-03-12T04:55:00.796Z,55.10
2023-03-12T04:57:30.288Z,55.22
2023-03-12T04:59:58.556Z,54.94
2023-03-12T05:02:26.693Z,54.94
2023-03-12T05:04:58.301Z,54.87
2023-03-12T05:07:26.755Z,54.91
2023-03-12T05:09:54.747Z,54.65
2023-03-12T05:12:22.851Z,54.52
2023-03-12T05:14:52.333Z,54.56
2023-03-12T05:17:20.452Z,54.49
2023-03-12T05:19:48.600Z,54.42
2023-03-12T05:22:16.652Z,54.65
2023-03-12T05:24:44.732Z,54.70
2023-03-12T05:27:13.296Z,54.66
2023-03-12T05:29:41.759Z,54.85
2023-03-12T05:32:11.292Z,54.43
2023-03-12T05:34:39.467Z,54.12
2023-03-12T05:37:07.804Z,54.30
2023-03-12T05:39:36.168Z,54.24
2023-03-12T05:42:06.690Z,53.93
2023-03-12T05:44:35.650Z,53.44
2023-03-12T05:47:03.786Z,53.18
2023-03-12T05:49:33.164Z,53.01
2023-03-12T05:52:01.471Z,52.98
2023-03-12T05:54:29.558Z,52.92
2023-03-12T05:56:57.991Z,52.66
2023-03-12T05:59:27.878Z,52.47
2023-03-12T06:01:56.840Z,52.35
2023-03-12T06:04:25.096Z,52.12
2023-03-12T06:06:56.118Z,52.20
2023-03-12T06:09:24.334Z,52.17
2023-03-12T06:11:53.787Z,52.00
2023-03-12T06:14:21.874Z,52.15
2023-03-12T06:16:51.040Z,51.94
2023-03-12T06:19:19.433Z,51.95
2023-03-12T06:21:50.008Z,51.87
2023-03-12T06:24:19.479Z,51.82
2023-03-12T06:26:51.285Z,51.82
2023-03-12T06:29:19.353Z,51.49
2023-03-12T06:31:48.329Z,51.62
2023-03-12T06:34:17.065Z,51.75
2023-03-12T06:36:45.313Z,51.69
2023-03-12T06:39:13.412Z,51.50
2023-03-12T06:41:42.880Z,51.17
2023-03-12T06:44:10.925Z,51.10
2023-03-12T06:46:39.163Z,51.04
2023-03-12T06:49:07.256Z,50.53
2023-03-12T06:51:35.319Z,51.32
2023-03-12T06:54:05.845Z,51.06
2023-03-12T06:56:34.215Z,51.07
2023-03-12T06:59:03.640Z,50.99
2023-03-12T07:01:31.767Z,50.94
2023-03-12T07:03:59.809Z,50.92
2023-03-12T07:06:28.000Z,50.82
2023-03-12T07:08:56.124Z,50.77
2023-03-12T07:11:24.337Z,50.72
2023-03-12T07:13:55.589Z,50.92
2023-03-12T07:16:30.626Z,51.00
2023-03-12T07:19:01.945Z,50.97
2023-03-12T07:21:36.653Z,51.03
2023-03-12T07:24:10.122Z,50.92
2023-03-12T07:26:48.163Z,50.32
2023-03-12T07:29:22.164Z,50.81
2023-03-12T07:31:55.102Z,50.94
2023-03-12T07:34:26.001Z,51.13
2023-03-12T07:36:54.978Z,50.92
2023-03-12T07:39:30.983Z,50.71
2023-03-12T07:42:05.587Z,50.50
2023-03-12T07:44:36.880Z,50.65
2023-03-12T07:47:22.332Z,50.30
2023-03-12T07:50:03.103Z,49.83
2023-03-12T07:52:31.338Z,50.09
2023-03-12T07:54:59.741Z,49.98
2023-03-12T07:57:28.011Z,49.85
2023-03-12T07:59:56.286Z,49.83
2023-03-12T08:02:25.828Z,49.52
2023-03-12T08:04:54.270Z,49.49
2023-03-12T08:07:22.545Z,49.33
2023-03-12T08:09:50.701Z,49.12
2023-03-12T08:12:18.884Z,49.22
2023-03-12T08:14:47.074Z,49.23
2023-03-12T08:17:15.228Z,48.90
2023-03-12T08:19:44.702Z,48.78
2023-03-12T08:22:12.972Z,48.35
2023-03-12T08:24:41.023Z,48.53
2023-03-12T08:27:09.154Z,48.29
2023-03-12T08:29:37.277Z,48.20
2023-03-12T08:32:05.916Z,48.08
2023-03-12T08:34:34.762Z,48.25
2023-03-12T08:37:05.041Z,47.99
2023-03-12T08:39:33.955Z,48.18
2023-03-12T08:42:02.025Z,47.89
2023-03-12T08:44:30.288Z,47.73
2023-03-12T08:47:00.548Z,47.62
2023-03-12T08:49:28.737Z,47.67
2023-03-12T08:51:57.041Z,47.53
2023-03-12T08:54:26.642Z,47.62
2023-03-12T08:56:55.067Z,47.76
2023-03-12T08:59:23.598Z,47.70
2023-03-12T09:01:51.734Z,47.96
2023-03-12T09:04:20.021Z,47.99
2023-03-12T09:06:48.208Z,48.08
2023-03-12T09:09:16.430Z,47.84
2023-03-12T09:11:45.984Z,47.68
2023-03-12T09:17:02.839Z,47.89
2023-03-12T09:19:31.238Z,48.11
2023-03-12T09:21:59.346Z,48.19
2023-03-12T09:24:27.429Z,48.28
2023-03-12T09:26:56.865Z,48.70
2023-03-12T09:29:24.994Z,49.47
2023-03-12T09:31:53.533Z,49.89
2023-03-12T09:34:21.686Z,50.26
2023-03-12T09:36:49.983Z,50.59
2023-03-12T09:39:18.115Z,51.16
2023-03-12T09:41:48.454Z,51.60
2023-03-12T09:44:26.693Z,52.07
2023-03-12T09:46:57.418Z,52.13
2023-03-12T09:49:34.383Z,51.94
2023-03-12T09:52:08.722Z,52.33
2023-03-12T09:54:42.791Z,52.70
2023-03-12T09:57:13.902Z,52.67
2023-03-12T09:59:43.513Z,53.18
2023-03-12T10:02:30.732Z,54.37
2023-03-12T10:05:01.815Z,54.71
2023-03-12T10:07:35.795Z,56.18
2023-03-12T10:10:15.302Z,56.23
2023-03-12T10:12:55.042Z,55.94
2023-03-12T10:15:37.886Z,56.00
2023-03-12T10:18:19.123Z,56.09
2023-03-12T10:21:09.383Z,56.74
2023-03-12T10:23:48.177Z,56.58
2023-03-12T10:26:20.357Z,56.27
2023-03-12T10:28:59.152Z,56.47
2023-03-12T10:31:33.249Z,57.03
2023-03-12T10:34:02.490Z,57.84
2023-03-12T10:36:36.860Z,58.10
2023-03-12T10:39:06.176Z,57.44
2023-03-12T10:41:35.115Z,57.38
2023-03-12T10:44:10.015Z,57.51
2023-03-12T10:46:53.311Z,57.99
2023-03-12T10:49:26.501Z,58.04
2023-03-12T10:51:56.439Z,58.37
2023-03-12T10:54:30.188Z,58.62
2023-03-12T10:56:58.563Z,58.77
2023-03-12T10:59:32.345Z,59.77
2023-03-12T11:02:02.292Z,59.28
2023-03-12T11:04:32.271Z,59.90
2023-03-12T11:07:26.141Z,59.54
2023-03-12T11:10:17.150Z,59.05
2023-03-12T11:12:58.102Z,59.06
2023-03-12T11:15:28.204Z,59.88
2023-03-12T11:18:24.067Z,60.00
2023-03-12T11:20:53.671Z,59.74
2023-03-12T11:23:25.449Z,60.20
2023-03-12T11:25:56.582Z,59.76
2023-03-12T11:28:29.387Z,60.00
2023-03-12T11:30:59.445Z,60.25
2023-03-12T11:33:29.690Z,60.16
2023-03-12T11:36:09.859Z,59.97
2023-03-12T11:38:42.622Z,60.18
2023-03-12T11:41:22.471Z,60.03
2023-03-12T11:44:18.233Z,60.62
2023-03-12T11:46:56.678Z,59.96
2023-03-12T11:49:42.236Z,59.87
2023-03-12T11:52:17.805Z,60.09
2023-03-12T11:55:04.564Z,60.78
2023-03-12T11:57:43.214Z,59.99
2023-03-12T12:00:17.448Z,59.76
2023-03-12T12:03:06.891Z,59.86
2023-03-12T12:05:48.203Z,59.69
2023-03-12T12:08:35.082Z,59.96
2023-03-12T12:11:12.313Z,59.56
2023-03-12T12:13:49.771Z,60.08
2023-03-12T12:16:44.062Z,60.03
2023-03-12T12:19:23.967Z,59.88
2023-03-12T12:22:12.281Z,59.92
2023-03-12T12:24:52.615Z,59.54
2023-03-12T12:27:22.697Z,59.51
2023-03-12T12:30:14.444Z,59.49
2023-03-12T12:33:05.867Z,60.16
2023-03-12T12:35:37.963Z,60.45
2023-03-12T12:38:13.690Z,59.75
2023-03-12T12:40:44.843Z,60.05
2023-03-12T12:43:25.104Z,59.87
2023-03-12T12:45:56.823Z,59.80
2023-03-12T12:48:30.709Z,60.76
2023-03-12T12:51:00.937Z,61.20
2023-03-12T12:53:38.714Z,60.81
2023-03-12T12:56:15.516Z,60.93
2023-03-12T12:59:21.567Z,61.18
2023-03-12T13:01:52.392Z,61.24
2023-03-12T13:04:26.390Z,61.51
2023-03-12T13:06:59.646Z,61.28
2023-03-12T13:09:43.531Z,61.13
2023-03-12T13:12:23.018Z,61.18
2023-03-12T13:14:51.748Z,61.17
2023-03-12T13:17:27.453Z,61.02
2023-03-12T13:20:01.983Z,61.17
2023-03-12T13:23:02.270Z,61.53
2023-03-12T13:25:48.764Z,62.03
2023-03-12T13:29:11.864Z,61.99
2023-03-12T13:31:42.356Z,61.51
2023-03-12T13:34:47.321Z,61.03
2023-03-12T13:37:58.216Z,61.45
2023-03-12T13:41:02.757Z,61.25
2023-03-12T13:43:50.931Z,61.04
2023-03-12T13:46:42.874Z,60.97
2023-03-12T13:49:19.971Z,60.86
2023-03-12T13:52:09.331Z,61.38
2023-03-12T13:54:44.234Z,61.32
2023-03-12T13:57:27.047Z,61.26
2023-03-12T13:59:57.124Z,61.11
2023-03-12T14:02:31.451Z,61.00
2023-03-12T14:05:05.732Z,60.86
2023-03-12T14:08:07.046Z,61.23
2023-03-12T14:10:44.746Z,61.79
2023-03-12T14:13:35.259Z,62.47
2023-03-12T14:16:10.756Z,61.87
2023-03-12T14:18:40.717Z,61.82
2023-03-12T14:21:11.728Z,62.28
2023-03-12T14:23:42.506Z,62.74
2023-03-12T14:26:21.719Z,62.61
2023-03-12T14:28:58.860Z,62.68
2023-03-12T14:31:28.781Z,62.60
2023-03-12T14:34:00.567Z,62.63
2023-03-12T14:36:32.085Z,62.52
2023-03-12T14:39:12.689Z,62.63
2023-03-12T14:41:46.571Z,62.27
2023-03-12T14:44:23.947Z,62.37
2023-03-12T14:47:00.269Z,62.71
2023-03-12T14:49:29.489Z,62.49
2023-03-12T14:51:58.275Z,62.44
2023-03-12T14:54:28.707Z,62.38
2023-03-12T14:56:57.066Z,62.32
2023-03-12T14:59:31.105Z,62.61
2023-03-12T15:02:03.098Z,63.01
2023-03-12T15:04:34.441Z,63.17
2023-03-12T15:07:05.741Z,62.82
2023-03-12T15:09:37.065Z,62.73
2023-03-12T15:12:08.325Z,62.86
2023-03-12T15:14:42.282Z,62.86
2023-03-12T15:17:17.856Z,62.73
2023-03-12T15:19:47.501Z,63.11
2023-03-12T15:22:19.061Z,62.78
2023-03-12T15:24:47.755Z,62.64
2023-03-12T15:27:31.357Z,62.44
2023-03-12T15:30:02.223Z,62.81
2023-03-12T15:32:32.020Z,62.57
2023-03-12T15:35:00.976Z,62.73
2023-03-12T15:37:32.854Z,62.63
2023-03-12T15:40:06.291Z,62.37
2023-03-12T15:42:39.853Z,62.43
2023-03-12T15:45:19.664Z,62.15
2023-03-12T15:47:49.049Z,62.47
2023-03-12T15:50:22.996Z,62.48
2023-03-12T15:53:02.979Z,62.15
2023-03-12T15:55:33.214Z,62.31
2023-03-12T15:58:01.843Z,62.10
2023-03-12T16:00:33.273Z,62.02
2023-03-12T16:03:04.061Z,61.98
2023-03-12T16:05:34.531Z,61.83
2023-03-12T16:08:11.547Z,61.47
2023-03-12T16:10:40.537Z,61.46
2023-03-12T16:13:11.663Z,61.31
2023-03-12T16:15:42.159Z,61.47
2023-03-12T16:18:14.588Z,61.46
2023-03-12T16:20:43.264Z,61.79
2023-03-12T16:23:11.779Z,61.69
2023-03-12T16:25:40.815Z,61.41
2023-03-12T16:28:09.157Z,61.30
2023-03-12T16:30:38.343Z,61.19
2023-03-12T16:33:09.456Z,60.86
2023-03-12T16:35:38.728Z,60.70
2023-03-12T16:38:07.303Z,60.32
2023-03-12T16:40:38.548Z,60.32
2023-03-12T16:43:12.362Z,60.14
2023-03-12T16:45:44.722Z,59.96
2023-03-12T16:48:17.546Z,59.59
2023-03-12T16:50:51.429Z,59.70
2023-03-12T16:53:20.222Z,59.29
2023-03-12T16:55:51.416Z,59.32
2023-03-12T16:58:21.720Z,59.08
2023-03-12T17:00:50.633Z,59.03
2023-03-12T17:03:29.177Z,59.03
2023-03-12T17:05:57.606Z,58.69
2023-03-12T17:08:26.145Z,58.81
2023-03-12T17:10:55.625Z,58.88
2023-03-12T17:13:26.113Z,58.82
2023-03-12T17:15:55.675Z,58.66
2023-03-12T17:18:25.623Z,58.72
2023-03-12T17:20:55.399Z,58.93
2023-03-12T17:23:24.678Z,58.83
2023-03-12T17:25:53.014Z,58.78
2023-03-12T17:28:21.381Z,58.65
2023-03-12T17:30:49.747Z,58.73
2023-03-12T17:33:20.171Z,58.77
2023-03-12T17:35:58.130Z,58.64
2023-03-12T17:38:26.444Z,59.06
2023-03-12T17:40:55.214Z,58.67
2023-03-12T17:43:23.759Z,58.55
2023-03-12T17:45:52.559Z,58.58
2023-03-12T17:48:23.157Z,58.49
2023-03-12T17:50:52.833Z,58.54
2023-03-12T17:53:21.091Z,58.58
2023-03-12T17:55:49.351Z,58.45
2023-03-12T17:58:17.737Z,58.32
2023-03-12T18:00:46.043Z,58.27
2023-03-12T18:03:14.333Z,58.35
2023-03-12T18:05:43.188Z,58.41
2023-03-12T18:08:12.941Z,58.38
2023-03-12T18:10:41.407Z,58.38
2023-03-12T18:13:09.670Z,58.22
2023-03-12T18:15:38.130Z,58.09
2023-03-12T18:18:06.622Z,58.00
2023-03-12T18:20:39.362Z,57.99
2023-03-12T18:23:08.399Z,57.96
2023-03-12T18:25:38.353Z,57.93
2023-03-12T18:28:06.955Z,58.00
2023-03-12T18:30:35.739Z,57.99
2023-03-12T18:33:04.043Z,57.98
2023-03-12T18:35:32.473Z,57.77
2023-03-12T18:38:03.924Z,57.70
2023-03-12T18:40:33.640Z,57.57
2023-03-12T18:43:03.322Z,57.40
2023-03-12T18:45:32.105Z,57.48
2023-03-12T18:48:00.473Z,57.49
2023-03-12T18:50:28.826Z,57.42
2023-03-12T18:52:57.073Z,57.35
2023-03-12T18:55:25.528Z,57.46
2023-03-12T18:57:53.968Z,57.31
2023-03-12T19:00:23.817Z,57.28
2023-03-12T19:02:52.164Z,57.34
2023-03-12T19:05:20.735Z,57.36
2023-03-12T19:07:49.138Z,57.32
2023-03-12T19:10:17.737Z,57.30
2023-03-12T19:12:52.585Z,57.45
2023-03-12T19:15:21.868Z,57.13
2023-03-12T19:17:51.899Z,57.16
2023-03-12T19:20:20.359Z,57.14
2023-03-12T19:22:48.697Z,57.06
2023-03-12T19:25:17.343Z,56.90
2023-03-12T19:27:45.762Z,56.98
2023-03-12T19:30:14.909Z,56.90
2023-03-12T19:32:44.717Z,57.06
2023-03-12T19:35:16.013Z,57.03
2023-03-12T19:37:44.397Z,56.81
2023-03-12T19:40:14.040Z,56.89
2023-03-12T19:42:42.352Z,57.03
2023-03-12T19:45:14.430Z,56.93
2023-03-12T19:47:42.769Z,56.65
2023-03-12T19:50:12.827Z,56.84
2023-03-12T19:52:42.534Z,56.76
2023-03-12T19:55:12.040Z,56.90
2023-03-12T19:57:41.059Z,57.16
2023-03-12T20:00:12.375Z,57.02
2023-03-12T20:02:41.413Z,57.16
2023-03-12T20:05:11.075Z,56.97
2023-03-12T20:07:39.513Z,57.06
2023-03-12T20:10:11.184Z,56.93
2023-03-12T20:12:39.712Z,57.06
2023-03-12T20:15:09.217Z,57.00
2023-03-12T20:17:37.474Z,56.78
2023-03-12T20:20:08.828Z,56.66
2023-03-12T20:22:37.319Z,57.13
2023-03-12T20:25:06.850Z,56.77
2023-03-12T20:27:36.619Z,56.65
2023-03-12T20:30:05.508Z,56.68
2023-03-12T20:32:33.983Z,56.89
2023-03-12T20:35:02.326Z,57.45
2023-03-12T20:37:30.592Z,57.51
2023-03-12T20:39:58.869Z,57.44
2023-03-12T20:42:27.231Z,57.39
2023-03-12T20:44:56.922Z,57.43
2023-03-12T20:47:25.354Z,57.27
2023-03-12T20:49:53.700Z,57.03
2023-03-12T20:52:22.052Z,57.14
2023-03-12T20:54:50.281Z,57.42
2023-03-12T20:57:18.577Z,57.36
2023-03-12T20:59:46.853Z,57.43
2023-03-12T21:02:16.786Z,57.51
2023-03-12T21:04:45.484Z,57.60
2023-03-12T21:07:13.909Z,57.87
2023-03-12T21:09:42.163Z,57.60
2023-03-12T21:12:10.526Z,57.28
2023-03-12T21:14:39.936Z,57.51
2023-03-12T21:17:13.208Z,57.68
2023-03-12T21:19:43.317Z,58.13
2023-03-12T21:22:11.927Z,58.29
2023-03-12T21:24:40.290Z,58.39
2023-03-12T21:27:11.433Z,58.33
2023-03-12T21:29:39.830Z,57.90
2023-03-12T21:32:08.363Z,57.74
2023-03-12T21:34:37.132Z,57.71
2023-03-12T21:37:06.804Z,57.69
2023-03-12T21:39:36.174Z,57.57
2023-03-12T21:42:04.578Z,57.92
2023-03-12T21:44:32.979Z,57.62
2023-03-12T21:47:01.228Z,57.53
2023-03-12T21:49:29.596Z,57.75
2023-03-12T21:51:58.629Z,58.18
2023-03-12T21:54:32.821Z,57.72
2023-03-12T21:57:02.979Z,57.79
2023-03-12T21:59:31.689Z,57.53
2023-03-12T22:02:00.227Z,57.48
2023-03-12T22:04:29.553Z,57.10
2023-03-12T22:06:57.810Z,57.56
2023-03-12T22:09:27.689Z,56.93
2023-03-12T22:11:56.252Z,56.94
2023-03-12T22:14:31.757Z,56.96
2023-03-12T22:17:02.480Z,57.07
2023-03-12T22:19:31.313Z,56.81
2023-03-12T22:21:59.617Z,56.78
2023-03-12T22:24:29.378Z,56.61
2023-03-12T22:26:57.664Z,56.47
2023-03-12T22:29:25.952Z,56.55
2023-03-12T22:31:54.242Z,56.26
2023-03-12T22:34:22.503Z,56.24
2023-03-12T22:36:50.850Z,56.25
2023-03-12T22:39:19.225Z,56.20
2023-03-12T22:41:51.828Z,56.15
2023-03-12T22:44:20.179Z,56.24
2023-03-12T22:46:48.446Z,56.12
2023-03-12T22:49:16.765Z,55.96
2023-03-12T22:51:45.145Z,56.16
2023-03-12T22:54:13.469Z,56.31
2023-03-12T22:56:41.713Z,56.25
2023-03-12T22:59:12.057Z,56.16
2023-03-12T23:01:40.417Z,56.38
2023-03-12T23:04:08.721Z,56.64
2023-03-12T23:06:37.087Z,56.40
2023-03-12T23:09:05.518Z,56.36
2023-03-12T23:11:33.850Z,56.41
2023-03-12T23:14:02.210Z,56.43
2023-03-12T23:16:32.012Z,56.61
2023-03-12T23:19:00.489Z,56.47
2023-03-12T23:21:28.822Z,56.35
2023-03-12T23:23:57.112Z,56.28
2023-03-12T23:26:27.418Z,56.34
2023-03-12T23:28:56.335Z,56.26
2023-03-12T23:31:24.980Z,56.08
2023-03-12T23:33:54.966Z,56.03
2023-03-12T23:36:24.511Z,55.81
2023-03-12T23:38:52.827Z,55.67
2023-03-12T23:41:22.995Z,55.45
2023-03-12T23:43:51.968Z,55.93
2023-03-12T23:46:20.858Z,56.00
2023-03-12T23:48:49.176Z,56.06
2023-03-12T23:51:20.426Z,56.24
2023-03-12T23:53:51.464Z,57.58
2023-03-12T23:56:21.736Z,58.09
2023-03-12T23:58:51.341Z,58.43
